createdAt,value
2018-08-13T00:01:44.225Z,6.20
2018-08-13T00:04:11.766Z,6.80
2018-08-13T00:06:39.348Z,5.97
2018-08-13T00:09:07.544Z,5.80
2018-08-13T00:11:35.065Z,5.90
2018-08-13T00:14:02.593Z,5.50
2018-08-13T00:16:30.078Z,5.93
2018-08-13T00:18:57.678Z,5.70
2018-08-13T00:21:25.233Z,5.80
2018-08-13T00:23:52.732Z,5.67
2018-08-13T00:26:20.338Z,5.30
2018-08-13T00:28:47.864Z,5.70
2018-08-13T00:31:15.364Z,5.13
2018-08-13T00:33:42.856Z,5.40
2018-08-13T00:36:10.402Z,5.70
2018-08-13T00:38:37.901Z,6.33
2018-08-13T00:41:05.580Z,6.83
2018-08-13T00:43:33.136Z,5.97
2018-08-13T00:46:00.673Z,5.83
2018-08-13T00:48:28.175Z,6.10
2018-08-13T00:50:55.761Z,6.37
2018-08-13T00:53:23.313Z,5.57
2018-08-13T00:55:50.813Z,5.53
2018-08-13T00:58:18.528Z,5.73
2018-08-13T01:00:46.036Z,5.70
2018-08-13T01:03:13.606Z,6.03
2018-08-13T01:05:41.229Z,6.00
2018-08-13T01:08:08.773Z,6.60
2018-08-13T01:10:36.327Z,6.67
2018-08-13T01:13:03.937Z,7.10
2018-08-13T01:15:31.549Z,7.10
2018-08-13T01:17:59.104Z,6.60
2018-08-13T01:20:26.694Z,6.87
2018-08-13T01:22:54.287Z,7.40
2018-08-13T01:25:21.956Z,6.90
2018-08-13T01:27:49.444Z,6.87
2018-08-13T01:30:18.000Z,7.30
2018-08-13T01:32:45.668Z,7.73
2018-08-13T01:35:13.297Z,7.50
2018-08-13T01:37:40.940Z,7.17
2018-08-13T01:40:09.499Z,7.40
2018-08-13T01:42:37.132Z,6.90
2018-08-13T01:45:06.157Z,7.07
2018-08-13T01:47:33.644Z,7.00
2018-08-13T01:50:01.405Z,10.03
2018-08-13T01:52:29.009Z,7.70
2018-08-13T01:54:56.567Z,7.87
2018-08-13T01:57:24.135Z,7.37
2018-08-13T01:59:51.749Z,6.60
2018-08-13T02:02:19.353Z,7.13
2018-08-13T02:04:47.302Z,7.50
2018-08-13T02:07:14.888Z,7.50
2018-08-13T02:09:42.495Z,7.47
2018-08-13T02:12:10.880Z,7.00
2018-08-13T02:14:38.366Z,7.10
2018-08-13T02:17:06.122Z,7.10
2018-08-13T02:19:33.696Z,7.47
2018-08-13T02:22:01.366Z,7.53
2018-08-13T02:24:29.006Z,7.37
2018-08-13T02:26:56.923Z,7.80
2018-08-13T02:29:25.264Z,7.50
2018-08-13T02:31:52.909Z,8.10
2018-08-13T02:34:20.554Z,8.03
2018-08-13T02:36:48.369Z,7.83
2018-08-13T02:39:16.022Z,6.97
2018-08-13T02:41:43.505Z,8.27
2018-08-13T02:44:11.042Z,7.30
2018-08-13T02:46:38.645Z,8.47
2018-08-13T02:49:06.228Z,7.53
2018-08-13T02:51:34.599Z,7.40
2018-08-13T02:54:03.239Z,6.83
2018-08-13T02:56:30.800Z,6.57
2018-08-13T02:58:58.914Z,7.63
2018-08-13T03:01:26.578Z,7.00
2018-08-13T03:03:54.211Z,7.53
2018-08-13T03:06:21.832Z,6.63
2018-08-13T03:08:49.442Z,7.03
2018-08-13T03:11:17.241Z,6.60
2018-08-13T03:13:44.733Z,6.10
2018-08-13T03:16:12.413Z,6.53
2018-08-13T03:18:40.362Z,5.87
2018-08-13T03:21:07.920Z,5.60
2018-08-13T03:23:35.544Z,5.90
2018-08-13T03:26:03.477Z,6.57
2018-08-13T03:28:31.029Z,5.47
2018-08-13T03:30:58.589Z,5.53
2018-08-13T03:33:26.182Z,8.27
2018-08-13T03:35:53.750Z,5.73
2018-08-13T03:38:21.256Z,6.03
2018-08-13T03:40:48.901Z,6.10
2018-08-13T03:43:16.549Z,5.10
2018-08-13T03:45:44.090Z,5.90
2018-08-13T03:48:11.705Z,4.67
2018-08-13T03:50:39.646Z,4.80
2018-08-13T03:53:07.475Z,4.80
2018-08-13T03:55:35.024Z,4.90
2018-08-13T03:58:02.586Z,6.60
2018-08-13T04:00:30.186Z,4.97
2018-08-13T04:02:57.745Z,6.00
2018-08-13T04:05:25.294Z,6.37
2018-08-13T04:07:52.938Z,5.23
2018-08-13T04:10:20.534Z,5.60
2018-08-13T04:12:48.239Z,6.03
2018-08-13T04:15:16.285Z,6.83
2018-08-13T04:17:44.694Z,4.97
2018-08-13T04:20:13.400Z,5.30
2018-08-13T04:22:41.032Z,5.07
2018-08-13T04:25:09.845Z,5.40
2018-08-13T04:27:38.572Z,5.30
2018-08-13T04:30:12.276Z,5.23
2018-08-13T04:32:40.259Z,4.93
2018-08-13T04:35:07.920Z,5.87
2018-08-13T04:37:35.568Z,4.70
2018-08-13T04:40:04.608Z,5.40
2018-08-13T04:42:32.249Z,5.60
2018-08-13T04:44:59.950Z,5.30
2018-08-13T04:47:27.642Z,5.80
2018-08-13T04:49:55.168Z,4.53
2018-08-13T04:52:22.790Z,4.90
2018-08-13T04:54:50.431Z,4.90
2018-08-13T04:57:18.019Z,4.80
2018-08-13T04:59:45.746Z,5.30
2018-08-13T05:02:13.435Z,4.40
2018-08-13T05:04:41.480Z,3.83
2018-08-13T05:07:09.265Z,4.40
2018-08-13T05:09:36.954Z,4.93
2018-08-13T05:12:04.651Z,4.43
2018-08-13T05:14:32.156Z,4.33
2018-08-13T05:16:59.680Z,4.90
2018-08-13T05:19:27.229Z,4.43
2018-08-13T05:21:54.808Z,4.40
2018-08-13T05:24:22.330Z,4.67
2018-08-13T05:26:49.853Z,4.60
2018-08-13T05:29:17.388Z,4.40
2018-08-13T05:31:44.899Z,4.50
2018-08-13T05:34:12.453Z,5.00
2018-08-13T05:36:40.028Z,5.80
2018-08-13T05:39:09.751Z,5.60
2018-08-13T05:41:37.389Z,4.17
2018-08-13T05:44:04.968Z,4.57
2018-08-13T05:46:32.540Z,4.57
2018-08-13T05:49:00.421Z,4.47
2018-08-13T05:51:27.951Z,4.57
2018-08-13T05:53:55.462Z,4.90
2018-08-13T05:56:23.718Z,4.57
2018-08-13T05:58:51.168Z,4.10
2018-08-13T06:01:22.300Z,4.33
2018-08-13T06:03:49.773Z,5.13
2018-08-13T06:06:17.288Z,5.73
2018-08-13T06:08:44.744Z,6.30
2018-08-13T06:11:12.206Z,5.33
2018-08-13T06:14:00.653Z,5.10
2018-08-13T06:16:28.584Z,4.60
2018-08-13T06:18:56.104Z,5.27
2018-08-13T06:21:23.621Z,4.70
2018-08-13T06:23:51.148Z,5.20
2018-08-13T06:26:18.677Z,5.07
2018-08-13T06:28:46.204Z,5.00
2018-08-13T06:31:13.731Z,4.03
2018-08-13T06:33:41.299Z,4.93
2018-08-13T06:36:08.775Z,4.80
2018-08-13T06:38:36.232Z,4.70
2018-08-13T06:41:03.802Z,5.23
2018-08-13T06:43:31.391Z,3.83
2018-08-13T06:45:58.919Z,5.23
2018-08-13T06:48:26.459Z,3.63
2018-08-13T06:50:54.007Z,4.00
2018-08-13T06:53:21.544Z,4.00
2018-08-13T06:55:49.089Z,4.03
2018-08-13T06:58:16.608Z,4.70
2018-08-13T07:00:44.189Z,4.80
2018-08-13T07:03:11.752Z,4.40
2018-08-13T07:05:39.203Z,4.83
2018-08-13T07:08:06.778Z,3.83
2018-08-13T07:10:34.376Z,3.87
2018-08-13T07:13:02.266Z,3.70
2018-08-13T07:15:29.844Z,2.87
2018-08-13T07:17:57.584Z,4.73
2018-08-13T07:20:25.217Z,3.70
2018-08-13T07:22:52.896Z,3.43
2018-08-13T07:25:20.464Z,6.73
2018-08-13T07:27:48.076Z,5.23
2018-08-13T07:30:15.553Z,3.67
2018-08-13T07:32:43.666Z,4.27
2018-08-13T07:35:11.259Z,3.57
2018-08-13T07:37:38.803Z,4.10
2018-08-13T07:40:09.113Z,3.73
2018-08-13T07:42:36.655Z,5.27
2018-08-13T07:45:05.391Z,4.03
2018-08-13T07:47:33.088Z,2.60
2018-08-13T07:50:00.628Z,3.40
2018-08-13T07:52:28.241Z,3.30
2018-08-13T07:54:55.929Z,2.83
2018-08-13T07:57:23.459Z,3.23
2018-08-13T07:59:51.367Z,3.50
2018-08-13T08:02:18.928Z,3.10
2018-08-13T08:04:46.460Z,3.73
2018-08-13T08:07:13.936Z,6.67
2018-08-13T08:09:41.777Z,3.43
2018-08-13T08:12:09.345Z,7.00
2018-08-13T08:14:37.048Z,5.03
2018-08-13T08:17:04.763Z,5.60
2018-08-13T08:19:32.539Z,3.50
2018-08-13T08:22:00.223Z,4.20
2018-08-13T08:24:27.680Z,4.33
2018-08-13T08:26:55.421Z,5.77
2018-08-13T08:29:23.125Z,3.70
2018-08-13T08:31:50.630Z,4.67
2018-08-13T08:34:18.187Z,4.27
2018-08-13T08:36:45.764Z,3.40
2018-08-13T08:39:14.672Z,3.90
2018-08-13T08:41:42.971Z,6.20
2018-08-13T08:44:10.951Z,4.27
2018-08-13T08:46:39.351Z,4.33
2018-08-13T08:49:07.377Z,4.63
2018-08-13T08:51:35.717Z,4.07
2018-08-13T08:54:03.408Z,4.93
2018-08-13T08:56:31.347Z,3.70
2018-08-13T08:58:58.912Z,3.70
2018-08-13T09:01:27.033Z,4.33
2018-08-13T09:03:54.866Z,4.37
2018-08-13T09:06:23.169Z,4.03
2018-08-13T09:08:51.031Z,4.00
2018-08-13T09:11:18.869Z,3.70
2018-08-13T09:13:47.647Z,4.40
2018-08-13T09:16:15.736Z,3.97
2018-08-13T09:18:55.186Z,3.53
2018-08-13T09:21:29.135Z,3.43
2018-08-13T09:24:08.969Z,3.00
2018-08-13T09:26:47.908Z,3.70
2018-08-13T09:29:26.793Z,3.83
2018-08-13T09:32:20.325Z,4.73
2018-08-13T09:35:09.479Z,5.33
2018-08-13T09:37:37.019Z,4.13
2018-08-13T09:40:06.644Z,3.50
2018-08-13T09:42:34.313Z,5.93
2018-08-13T09:45:01.981Z,4.17
2018-08-13T09:47:29.452Z,5.50
2018-08-13T09:49:57.148Z,9.20
2018-08-13T09:52:24.708Z,5.80
2018-08-13T09:57:44.359Z,5.47
2018-08-13T10:00:18.519Z,4.90
2018-08-13T10:02:46.851Z,3.93
2018-08-13T10:05:14.727Z,2.87
2018-08-13T10:07:42.738Z,3.80
2018-08-13T10:10:10.948Z,4.90
2018-08-13T10:12:40.292Z,6.30
2018-08-13T10:15:08.926Z,5.83
2018-08-13T10:17:36.834Z,3.20
2018-08-13T10:20:06.176Z,3.47
2018-08-13T10:22:33.754Z,3.73
2018-08-13T10:25:01.635Z,4.03
2018-08-13T10:27:29.146Z,6.50
2018-08-13T10:29:56.759Z,5.30
2018-08-13T10:32:24.281Z,4.73
2018-08-13T10:34:52.107Z,4.93
2018-08-13T10:37:19.747Z,5.93
2018-08-13T10:39:47.389Z,4.97
2018-08-13T10:42:15.043Z,5.23
2018-08-13T10:44:42.690Z,6.23
2018-08-13T10:47:10.236Z,5.77
2018-08-13T10:49:37.803Z,6.33
2018-08-13T10:52:05.348Z,4.67
2018-08-13T10:54:32.921Z,6.10
2018-08-13T10:57:00.381Z,5.13
2018-08-13T10:59:27.921Z,5.00
2018-08-13T11:01:55.568Z,6.10
2018-08-13T11:04:23.142Z,4.93
2018-08-13T11:06:50.652Z,4.50
2018-08-13T11:09:18.158Z,6.43
2018-08-13T11:11:45.756Z,5.47
2018-08-13T11:14:13.390Z,5.23
2018-08-13T11:16:40.963Z,4.93
2018-08-13T11:19:08.524Z,6.03
2018-08-13T11:21:36.039Z,5.77
2018-08-13T11:24:03.591Z,6.20
2018-08-13T11:26:31.428Z,7.67
2018-08-13T11:28:59.288Z,8.33
2018-08-13T11:31:26.803Z,4.87
2018-08-13T11:33:54.356Z,10.93
2018-08-13T11:36:21.803Z,5.63
2018-08-13T11:38:49.421Z,7.83
2018-08-13T11:41:19.269Z,4.90
2018-08-13T11:43:46.876Z,7.90
2018-08-13T11:46:14.350Z,6.00
2018-08-13T11:48:41.888Z,5.60
2018-08-13T11:51:09.452Z,6.13
2018-08-13T11:53:36.973Z,6.50
2018-08-13T11:56:04.557Z,6.00
2018-08-13T11:58:32.062Z,5.53
2018-08-13T12:00:59.656Z,5.63
2018-08-13T12:03:27.295Z,6.17
2018-08-13T12:05:54.872Z,5.57
2018-08-13T12:08:22.481Z,7.23
2018-08-13T12:10:49.918Z,5.30
2018-08-13T12:13:17.517Z,5.77
2018-08-13T12:15:45.020Z,7.03
2018-08-13T12:18:12.535Z,6.23
2018-08-13T12:20:39.993Z,5.57
2018-08-13T12:23:07.628Z,4.93
2018-08-13T12:25:35.156Z,6.37
2018-08-13T12:28:02.683Z,5.30
2018-08-13T12:30:30.310Z,5.47
2018-08-13T12:32:58.793Z,6.90
2018-08-13T12:35:26.465Z,5.10
2018-08-13T12:37:53.987Z,6.50
2018-08-13T12:40:21.456Z,6.10
2018-08-13T12:42:49.063Z,6.17
2018-08-13T12:45:17.515Z,5.40
2018-08-13T12:47:45.476Z,4.87
2018-08-13T12:50:15.625Z,5.90
2018-08-13T12:52:46.409Z,5.43
2018-08-13T12:55:14.321Z,6.10
2018-08-13T12:57:42.431Z,5.77
2018-08-13T13:00:13.621Z,5.47
2018-08-13T13:02:41.597Z,7.83
2018-08-13T13:05:10.638Z,6.23
2018-08-13T13:07:43.704Z,6.23
2018-08-13T13:10:19.244Z,8.03
2018-08-13T13:13:13.687Z,7.50
2018-08-13T13:15:44.065Z,5.80
2018-08-13T13:18:14.116Z,5.30
2018-08-13T13:20:41.644Z,5.17
2018-08-13T13:23:09.145Z,4.10
2018-08-13T13:25:36.605Z,5.00
2018-08-13T13:28:04.176Z,4.67
2018-08-13T13:30:31.716Z,5.53
2018-08-13T13:32:59.576Z,5.37
2018-08-13T13:35:27.113Z,4.13
2018-08-13T13:37:54.621Z,6.03
2018-08-13T13:40:22.059Z,3.60
2018-08-13T13:42:49.595Z,4.37
2018-08-13T13:45:17.403Z,4.33
2018-08-13T13:47:44.952Z,3.97
2018-08-13T13:50:14.976Z,4.43
2018-08-13T13:52:42.739Z,3.37
2018-08-13T13:55:10.340Z,3.23
2018-08-13T13:57:37.824Z,3.83
2018-08-13T14:00:10.395Z,3.50
2018-08-13T14:02:38.528Z,3.20
2018-08-13T14:05:07.256Z,2.90
2018-08-13T14:07:36.175Z,4.30
2018-08-13T14:10:05.015Z,4.73
2018-08-13T14:12:32.510Z,2.90
2018-08-13T14:15:00.337Z,3.20
2018-08-13T14:17:27.868Z,2.70
2018-08-13T14:19:55.388Z,5.20
2018-08-13T14:22:22.980Z,3.97
2018-08-13T14:24:50.595Z,3.53
2018-08-13T14:27:18.382Z,3.37
2018-08-13T14:29:45.988Z,3.87
2018-08-13T14:32:13.631Z,4.27
2018-08-13T14:34:41.222Z,3.80
2018-08-13T14:37:08.639Z,3.73
2018-08-13T14:39:36.145Z,4.43
2018-08-13T14:42:03.727Z,4.67
2018-08-13T14:44:31.203Z,3.80
2018-08-13T14:46:58.716Z,3.70
2018-08-13T14:49:26.280Z,3.83
2018-08-13T14:51:53.831Z,3.63
2018-08-13T14:54:21.509Z,3.83
2018-08-13T14:56:49.113Z,4.60
2018-08-13T14:59:16.684Z,6.33
2018-08-13T15:01:44.307Z,7.30
2018-08-13T15:04:12.097Z,7.80
2018-08-13T15:06:39.715Z,6.83
2018-08-13T15:09:08.672Z,6.47
2018-08-13T15:11:39.374Z,8.13
2018-08-13T15:14:08.324Z,12.33
2018-08-13T15:16:36.044Z,8.67
2018-08-13T15:19:03.773Z,8.73
2018-08-13T15:21:31.489Z,7.23
2018-08-13T15:23:59.067Z,9.37
2018-08-13T15:26:26.987Z,7.60
2018-08-13T15:28:54.837Z,6.73
2018-08-13T15:31:22.746Z,4.30
2018-08-13T15:33:50.533Z,2.73
2018-08-13T15:36:18.179Z,4.03
2018-08-13T15:38:45.957Z,3.47
2018-08-13T15:41:13.536Z,3.97
2018-08-13T15:43:41.248Z,3.97
2018-08-13T15:46:09.801Z,3.70
2018-08-13T15:48:37.461Z,3.80
2018-08-13T15:51:05.489Z,4.60
2018-08-13T15:53:33.047Z,3.40
2018-08-13T15:56:00.702Z,3.13
2018-08-13T15:58:28.295Z,3.17
2018-08-13T16:00:56.543Z,3.40
2018-08-13T16:03:27.803Z,8.67
2018-08-13T16:05:55.424Z,10.80
2018-08-13T16:08:23.055Z,9.63
2018-08-13T16:10:50.634Z,8.63
2018-08-13T16:13:18.202Z,9.07
2018-08-13T16:15:45.860Z,9.70
2018-08-13T16:18:13.652Z,11.20
2018-08-13T16:20:41.185Z,11.13
2018-08-13T16:23:08.697Z,13.40
2018-08-13T16:25:36.277Z,13.27
2018-08-13T16:28:03.769Z,15.60
2018-08-13T16:30:31.707Z,12.63
2018-08-13T16:32:59.500Z,13.03
2018-08-13T16:35:27.080Z,13.23
2018-08-13T16:37:55.203Z,15.50
2018-08-13T16:40:22.985Z,13.80
2018-08-13T16:42:51.074Z,15.17
2018-08-13T16:45:19.702Z,15.63
2018-08-13T16:47:47.252Z,15.27
2018-08-13T16:50:19.577Z,16.87
2018-08-13T16:52:47.211Z,16.27
2018-08-13T16:55:14.768Z,17.23
2018-08-13T16:57:42.953Z,18.27
2018-08-13T17:00:13.936Z,21.80
2018-08-13T17:02:41.794Z,16.83
2018-08-13T17:05:11.292Z,17.50
2018-08-13T17:07:39.736Z,17.63
2018-08-13T17:10:10.460Z,15.30
2018-08-13T17:12:38.130Z,17.17
2018-08-13T17:15:07.616Z,18.30
2018-08-13T17:17:35.900Z,16.70
2018-08-13T17:20:03.784Z,18.20
2018-08-13T17:22:31.333Z,17.73
2018-08-13T17:24:59.032Z,19.10
2018-08-13T17:27:26.689Z,18.17
2018-08-13T17:29:54.257Z,17.47
2018-08-13T17:32:22.279Z,19.77
2018-08-13T17:34:49.860Z,19.53
2018-08-13T17:37:17.380Z,19.33
2018-08-13T17:39:45.570Z,18.33
2018-08-13T17:42:13.159Z,18.57
2018-08-13T17:44:40.821Z,17.33
2018-08-13T17:47:08.356Z,15.00
2018-08-13T17:49:35.928Z,19.00
2018-08-13T17:52:03.500Z,16.67
2018-08-13T17:54:31.008Z,17.30
2018-08-13T17:56:58.577Z,19.53
2018-08-13T17:59:26.150Z,16.23
2018-08-13T18:01:53.743Z,18.33
2018-08-13T18:04:21.188Z,18.47
2018-08-13T18:06:48.720Z,19.90
2018-08-13T18:09:16.322Z,18.00
2018-08-13T18:11:43.929Z,17.87
2018-08-13T18:14:11.734Z,18.90
2018-08-13T18:16:39.229Z,19.10
2018-08-13T18:19:06.885Z,18.73
2018-08-13T18:21:34.385Z,19.60
2018-08-13T18:24:01.894Z,20.70
2018-08-13T18:26:29.820Z,19.90
2018-08-13T18:28:57.416Z,21.13
2018-08-13T18:31:24.998Z,20.07
2018-08-13T18:33:52.800Z,19.93
2018-08-13T18:36:20.367Z,19.70
2018-08-13T18:38:48.434Z,20.50
2018-08-13T18:41:15.969Z,19.00
2018-08-13T18:43:43.588Z,21.77
2018-08-13T18:46:11.403Z,23.30
2018-08-13T18:48:38.912Z,21.40
2018-08-13T18:51:06.455Z,21.97
2018-08-13T18:53:34.078Z,24.20
2018-08-13T18:56:01.572Z,18.73
2018-08-13T18:58:29.540Z,22.27
2018-08-13T19:00:57.083Z,24.33
2018-08-13T19:03:25.363Z,25.10
2018-08-13T19:05:53.088Z,22.03
2018-08-13T19:08:20.659Z,24.00
2018-08-13T19:10:48.146Z,17.80
2018-08-13T19:13:15.723Z,23.87
2018-08-13T19:15:43.545Z,25.93
2018-08-13T19:18:11.134Z,24.23
2018-08-13T19:20:38.668Z,24.30
2018-08-13T19:23:06.334Z,27.50
2018-08-13T19:25:33.912Z,23.83
2018-08-13T19:28:01.546Z,26.37
2018-08-13T19:30:29.057Z,27.27
2018-08-13T19:32:56.677Z,25.57
2018-08-13T19:35:24.346Z,25.90
2018-08-13T19:37:51.928Z,25.33
2018-08-13T19:40:24.176Z,29.60
2018-08-13T19:42:51.923Z,27.40
2018-08-13T19:45:20.309Z,28.30
2018-08-13T19:47:48.422Z,28.67
2018-08-13T19:50:16.233Z,26.80
2018-08-13T19:52:44.927Z,28.27
2018-08-13T19:55:12.803Z,26.63
2018-08-13T19:57:40.557Z,28.23
2018-08-13T20:00:11.380Z,29.53
2018-08-13T20:02:38.851Z,28.50
2018-08-13T20:05:07.686Z,27.80
2018-08-13T20:07:35.264Z,29.57
2018-08-13T20:10:02.986Z,29.23
2018-08-13T20:12:30.505Z,29.07
2018-08-13T20:14:58.106Z,30.27
2018-08-13T20:17:25.676Z,29.73
2018-08-13T20:19:53.211Z,29.43
2018-08-13T20:22:21.032Z,28.33
2018-08-13T20:24:48.540Z,28.97
2018-08-13T20:27:16.030Z,27.57
2018-08-13T20:29:43.543Z,28.37
2018-08-13T20:32:11.056Z,26.87
2018-08-13T20:34:38.655Z,24.37
2018-08-13T20:37:06.320Z,24.30
2018-08-13T20:39:33.770Z,20.50
2018-08-13T20:42:01.308Z,21.03
2018-08-13T20:44:28.851Z,21.87
2018-08-13T20:46:56.503Z,21.40
2018-08-13T20:49:24.159Z,19.23
2018-08-13T20:51:51.579Z,21.77
2018-08-13T20:54:19.263Z,20.80
2018-08-13T20:56:46.779Z,21.23
2018-08-13T20:59:14.359Z,20.33
2018-08-13T21:01:41.902Z,18.60
2018-08-13T21:04:09.542Z,19.93
2018-08-13T21:06:37.212Z,19.63
2018-08-13T21:09:08.013Z,18.33
2018-08-13T21:11:35.915Z,20.03
2018-08-13T21:14:03.793Z,19.77
2018-08-13T21:16:31.331Z,19.37
2018-08-13T21:18:59.077Z,18.90
2018-08-13T21:21:26.697Z,17.47
2018-08-13T21:23:54.291Z,18.60
2018-08-13T21:26:21.783Z,17.93
2018-08-13T21:28:49.251Z,18.87
2018-08-13T21:31:16.754Z,19.30
2018-08-13T21:33:44.675Z,17.40
2018-08-13T21:36:12.209Z,17.83
2018-08-13T21:38:39.729Z,18.43
2018-08-13T21:41:07.256Z,16.47
2018-08-13T21:43:34.812Z,16.90
2018-08-13T21:46:02.332Z,16.57
2018-08-13T21:48:30.200Z,16.47
2018-08-13T21:50:57.688Z,17.30
2018-08-13T21:53:25.492Z,16.10
2018-08-13T21:55:53.033Z,17.03
2018-08-13T21:58:20.501Z,17.13
2018-08-13T22:00:54.196Z,16.13
2018-08-13T22:03:21.712Z,15.20
2018-08-13T22:05:49.265Z,15.83
2018-08-13T22:08:16.805Z,15.73
2018-08-13T22:10:44.361Z,18.30
2018-08-13T22:13:11.931Z,15.87
2018-08-13T22:15:39.500Z,15.77
2018-08-13T22:18:07.604Z,15.80
2018-08-13T22:20:35.797Z,15.00
2018-08-13T22:23:04.628Z,15.60
2018-08-13T22:25:38.187Z,14.33
2018-08-13T22:28:06.600Z,16.97
2018-08-13T22:30:34.313Z,16.27
2018-08-13T22:33:01.885Z,16.07
2018-08-13T22:35:29.427Z,14.60
2018-08-13T22:37:57.464Z,14.83
2018-08-13T22:40:24.963Z,17.77
2018-08-13T22:42:52.610Z,17.33
2018-08-13T22:45:21.171Z,15.53
2018-08-13T22:47:48.703Z,16.80
2018-08-13T22:50:16.349Z,17.10
2018-08-13T22:52:43.907Z,14.20
2018-08-13T22:55:12.959Z,15.47
2018-08-13T22:57:40.554Z,17.50
2018-08-13T23:00:10.520Z,19.27
2018-08-13T23:02:38.257Z,21.00
2018-08-13T23:05:08.557Z,20.80
2018-08-13T23:07:36.887Z,23.17
2018-08-13T23:10:05.215Z,20.27
2018-08-13T23:12:32.751Z,22.90
2018-08-13T23:15:00.527Z,24.43
2018-08-13T23:17:28.328Z,23.30
2018-08-13T23:19:55.975Z,24.77
2018-08-13T23:22:57.269Z,26.00
2018-08-13T23:25:25.192Z,21.00
2018-08-13T23:27:54.000Z,22.40
2018-08-13T23:30:21.784Z,22.90
2018-08-13T23:32:51.621Z,26.03
2018-08-13T23:35:20.133Z,25.30
2018-08-13T23:37:48.223Z,22.33
2018-08-13T23:40:15.898Z,25.40
2018-08-13T23:42:43.610Z,24.70
2018-08-13T23:45:14.555Z,25.37
2018-08-13T23:47:42.312Z,23.97
2018-08-13T23:50:12.675Z,24.80
2018-08-13T23:52:40.288Z,24.77
2018-08-13T23:55:10.505Z,24.60
2018-08-13T23:57:38.061Z,23.97
